Time;durP1;ratioP1;P1;durP2;ratioP2;P2;SDS_P1;SDS_P2;PMS_P1;PMS_P2;Temp;Humidity;BMP_temperature;BMP_pressure;BME280_temperature;BME280_humidity;BME280_pressure;Samples;Min_cycle;Max_cycle;Signal;HPM_P1;HPM_P2
2021/08/13 00:00:19;;;;;;;3.53;0.90;;;;;;;12.93;100.00;99968.44;4974657;28;20053;-74
2021/08/13 00:03:22;;;;;;;2.90;0.57;;;;;;;13.10;100.00;99960.31;4973804;28;20582;-74
2021/08/13 00:06:25;;;;;;;4.57;0.60;;;;;;;13.23;100.00;99964.25;4972749;28;20076;-74
2021/08/13 00:09:28;;;;;;;4.18;0.57;;;;;;;13.38;100.00;99964.94;4973325;28;20754;-74
2021/08/13 00:12:32;;;;;;;3.00;0.50;;;;;;;13.46;100.00;99966.06;4971746;28;20060;-74
2021/08/13 00:15:35;;;;;;;1.30;0.90;;;;;;;13.46;100.00;99954.88;4973764;28;20053;-74
2021/08/13 00:18:38;;;;;;;0.65;0.28;;;;;;;13.50;100.00;99954.63;4973018;28;20057;-74
2021/08/13 00:21:41;;;;;;;1.98;0.95;;;;;;;13.56;100.00;99959.03;4972474;28;20116;-74
2021/08/13 00:24:44;;;;;;;6.05;0.73;;;;;;;13.57;100.00;99965.41;4972443;28;20046;-75
2021/08/13 00:27:47;;;;;;;0.10;0.10;;;;;;;13.61;100.00;99969.53;4972619;28;20157;-74
2021/08/13 00:30:51;;;;;;;0.28;0.25;;;;;;;13.60;100.00;99970.78;4973187;28;20099;-74
2021/08/13 00:33:54;;;;;;;0.43;0.32;;;;;;;13.64;100.00;99965.72;4955357;28;20053;-74
2021/08/13 00:36:57;;;;;;;0.38;0.25;;;;;;;13.67;100.00;99981.53;4963415;28;20072;-75
2021/08/13 00:40:00;;;;;;;1.63;0.70;;;;;;;13.70;100.00;99977.00;4963207;28;20060;-74
2021/08/13 00:43:04;;;;;;;5.05;0.52;;;;;;;13.71;100.00;99970.09;4964604;28;20057;-75
2021/08/13 00:46:07;;;;;;;1.95;0.55;;;;;;;13.72;100.00;99965.28;4964724;28;20104;-75
2021/08/13 00:49:10;;;;;;;0.77;0.35;;;;;;;13.61;100.00;99960.34;4969842;28;20060;-76
2021/08/13 00:52:15;;;;;;;1.55;0.38;;;;;;;13.51;100.00;99961.78;4965148;28;20794;-75
2021/08/13 00:55:19;;;;;;;1.17;0.63;;;;;;;13.38;100.00;99964.19;4969696;28;20116;-71
2021/08/13 00:58:23;;;;;;;0.47;0.20;;;;;;;13.24;100.00;99957.41;4969889;28;20761;-72
2021/08/13 01:01:26;;;;;;;11.18;0.38;;;;;;;13.08;100.00;99960.78;4969513;28;20056;-75
2021/08/13 01:04:29;;;;;;;2.75;0.73;;;;;;;13.02;100.00;99951.53;4969755;28;20072;-74
2021/08/13 01:07:32;;;;;;;1.75;0.20;;;;;;;12.93;100.00;99957.25;4967663;28;20092;-75
2021/08/13 01:10:44;;;;;;;0.30;0.20;;;;;;;12.86;100.00;99958.44;4968702;28;20204;-75
2021/08/13 01:13:55;;;;;;;3.42;1.20;;;;;;;12.71;100.00;99962.56;4960994;28;20812;-74
2021/08/13 01:16:59;;;;;;;5.47;0.85;;;;;;;12.66;100.00;99961.25;4968841;28;20069;-72
2021/08/13 01:20:09;;;;;;;2.05;0.60;;;;;;;12.57;100.00;99980.13;4968433;28;20701;-72
2021/08/13 01:23:18;;;;;;;1.50;0.32;;;;;;;12.49;100.00;99979.00;4963296;28;20077;-72
2021/08/13 01:26:23;;;;;;;0.30;0.20;;;;;;;12.51;100.00;99976.50;4968255;28;20057;-75
2021/08/13 01:29:38;;;;;;;3.05;0.65;;;;;;;12.45;100.00;99979.19;4968745;28;20080;-74
2021/08/13 01:33:03;;;;;;;3.33;0.80;;;;;;;12.40;100.00;99987.50;4971740;28;20045;-75
2021/08/13 01:36:08;;;;;;;0.52;0.50;;;;;;;12.37;100.00;99982.88;4967282;28;20057;-74
2021/08/13 01:39:12;;;;;;;3.83;0.40;;;;;;;12.36;100.00;99995.31;4973586;28;20061;-74
2021/08/13 01:42:15;;;;;;;0.90;0.60;;;;;;;12.36;100.00;99992.53;4972747;28;20112;-75
2021/08/13 01:45:35;;;;;;;3.30;0.43;;;;;;;12.46;100.00;99988.34;4968303;28;20085;-75
2021/08/13 01:48:38;;;;;;;4.75;0.73;;;;;;;12.48;100.00;99988.63;4972474;28;20904;-74
2021/08/13 01:51:43;;;;;;;2.50;0.32;;;;;;;12.45;100.00;99987.56;4972529;28;20203;-72
2021/08/13 01:54:48;;;;;;;1.75;0.70;;;;;;;12.45;100.00;99989.63;4971880;28;20048;-71
2021/08/13 01:57:51;;;;;;;2.92;0.43;;;;;;;12.50;100.00;99983.34;4964194;28;20119;-73
2021/08/13 02:00:56;;;;;;;5.22;0.85;;;;;;;12.63;100.00;99976.16;4971943;28;20061;-72
2021/08/13 02:04:04;;;;;;;7.00;0.93;;;;;;;12.67;100.00;99970.38;4965837;28;20060;-72
2021/08/13 02:07:10;;;;;;;2.83;0.85;;;;;;;12.73;100.00;99965.66;4971186;28;20272;-72
2021/08/13 02:10:15;;;;;;;10.63;0.55;;;;;;;12.75;100.00;99979.91;4967492;28;20057;-71
2021/08/13 02:13:18;;;;;;;6.93;0.88;;;;;;;12.78;100.00;99990.09;4971527;28;20072;-73
2021/08/13 02:16:26;;;;;;;0.57;0.32;;;;;;;12.70;100.00;99970.19;4970978;28;20073;-72
2021/08/13 02:19:41;;;;;;;0.43;0.28;;;;;;;12.67;100.00;99964.78;4970917;28;20120;-73
2021/08/13 02:22:44;;;;;;;1.00;0.60;;;;;;;12.61;100.00;99963.94;4971790;28;20049;-72
2021/08/13 02:25:48;;;;;;;0.40;0.30;;;;;;;12.56;100.00;99967.44;4971570;28;20104;-72
2021/08/13 02:28:51;;;;;;;4.05;0.50;;;;;;;12.52;100.00;99966.84;4970494;28;20096;-72
2021/08/13 02:31:54;;;;;;;1.02;0.40;;;;;;;12.48;100.00;99955.91;4971274;28;20752;-72
2021/08/13 02:34:57;;;;;;;1.08;0.32;;;;;;;12.45;100.00;99962.44;4971458;28;20057;-74
2021/08/13 02:38:08;;;;;;;3.88;0.38;;;;;;;12.39;100.00;99952.47;4970656;28;20113;-75
2021/08/13 02:41:13;;;;;;;5.93;0.57;;;;;;;12.37;100.00;99949.38;4966667;28;20325;-74
2021/08/13 02:44:18;;;;;;;0.20;0.20;;;;;;;12.33;100.00;99963.53;4968452;28;21252;-74
2021/08/13 02:47:25;;;;;;;3.50;0.55;;;;;;;12.30;100.00;99944.22;4971085;28;20183;-74
2021/08/13 02:50:31;;;;;;;0.30;0.30;;;;;;;12.27;100.00;99945.16;4971296;28;20112;-74
2021/08/13 02:53:41;;;;;;;4.55;0.95;;;;;;;12.21;100.00;99947.09;4972689;28;20096;-74
2021/08/13 02:56:46;;;;;;;0.88;0.40;;;;;;;12.23;100.00;99945.38;4972244;28;20123;-75
2021/08/13 02:59:51;;;;;;;2.80;0.85;;;;;;;12.18;100.00;99944.03;4970834;28;20085;-74
2021/08/13 03:02:55;;;;;;;1.02;0.57;;;;;;;12.18;100.00;99948.84;4970813;28;20068;-75
2021/08/13 03:06:01;;;;;;;2.40;0.47;;;;;;;12.15;100.00;99931.03;4970669;28;20124;-74
2021/08/13 03:09:06;;;;;;;0.50;0.30;;;;;;;12.13;100.00;99947.50;4964726;28;20061;-75
2021/08/13 03:12:10;;;;;;;1.08;0.38;;;;;;;12.11;100.00;99946.44;4965222;28;20056;-75
2021/08/13 03:15:14;;;;;;;0.10;0.10;;;;;;;12.10;100.00;99954.06;4966260;28;20730;-74
2021/08/13 03:18:17;;;;;;;1.48;0.73;;;;;;;12.05;100.00;99937.22;4969760;28;20080;-75
2021/08/13 03:21:21;;;;;;;0.30;0.20;;;;;;;12.02;100.00;99936.16;4968896;28;20108;-74
2021/08/13 03:24:25;;;;;;;6.78;1.27;;;;;;;12.00;100.00;99938.66;4970176;28;20139;-75
2021/08/13 03:27:29;;;;;;;3.40;0.45;;;;;;;12.00;100.00;99935.09;4969400;28;20072;-75
2021/08/13 03:30:40;;;;;;;8.13;1.48;;;;;;;11.99;100.00;99942.72;4970782;28;20133;-75
2021/08/13 03:33:43;;;;;;;0.43;0.32;;;;;;;12.00;100.00;99938.66;4962481;28;20076;-74
2021/08/13 03:36:46;;;;;;;0.68;0.40;;;;;;;11.99;100.00;99939.16;4969875;28;20060;-75
2021/08/13 03:39:50;;;;;;;5.05;0.65;;;;;;;11.97;100.00;99934.06;4969703;28;20123;-75
2021/08/13 03:42:53;;;;;;;1.38;0.32;;;;;;;11.98;100.00;99937.59;4962301;28;20921;-75
2021/08/13 03:45:56;;;;;;;9.57;1.05;;;;;;;11.92;100.00;99940.31;4968988;28;20057;-74
2021/08/13 03:48:59;;;;;;;8.50;0.68;;;;;;;11.95;100.00;99925.38;4964852;28;20565;-73
2021/08/13 03:52:03;;;;;;;9.82;0.93;;;;;;;12.06;100.00;99930.38;4971351;28;21078;-73
2021/08/13 03:55:06;;;;;;;3.00;0.47;;;;;;;12.04;100.00;99933.66;4965206;28;20080;-73
2021/08/13 03:58:09;;;;;;;2.58;0.35;;;;;;;11.99;100.00;99931.56;4966339;28;20057;-73
2021/08/13 04:01:12;;;;;;;1.98;0.93;;;;;;;11.92;100.00;99934.72;4969314;28;20077;-73
2021/08/13 04:04:16;;;;;;;3.30;0.32;;;;;;;11.86;100.00;99942.25;4970297;28;20056;-72
2021/08/13 04:07:19;;;;;;;1.08;0.63;;;;;;;11.78;100.00;99938.28;4967676;28;20156;-73
2021/08/13 04:10:22;;;;;;;2.38;0.40;;;;;;;11.75;100.00;99938.50;4966866;28;20053;-73
2021/08/13 04:13:25;;;;;;;0.32;0.32;;;;;;;11.69;100.00;99946.78;4967728;28;20534;-73
2021/08/13 04:16:28;;;;;;;1.98;1.13;;;;;;;11.72;100.00;99956.19;4963840;28;20156;-74
2021/08/13 04:19:31;;;;;;;1.50;0.77;;;;;;;11.74;100.00;99957.25;4969247;28;20215;-72
2021/08/13 04:22:35;;;;;;;0.68;0.40;;;;;;;11.85;100.00;99951.84;4970245;28;21166;-72
2021/08/13 04:25:38;;;;;;;0.68;0.40;;;;;;;11.90;100.00;99948.41;4970135;28;20063;-72
2021/08/13 04:28:41;;;;;;;1.42;0.40;;;;;;;12.00;100.00;99963.00;4969778;28;20060;-73
2021/08/13 04:31:44;;;;;;;3.03;0.38;;;;;;;12.11;100.00;99969.56;4962009;28;20563;-73
2021/08/13 04:34:48;;;;;;;4.18;0.63;;;;;;;12.17;100.00;99964.81;4961581;28;20116;-73
2021/08/13 04:37:51;;;;;;;2.83;0.75;;;;;;;12.22;100.00;99960.56;4962602;28;20052;-73
2021/08/13 04:40:54;;;;;;;5.13;0.65;;;;;;;12.27;100.00;99967.50;4963422;28;20100;-73
2021/08/13 04:43:57;;;;;;;4.88;0.68;;;;;;;12.28;100.00;99963.47;4969779;28;20249;-73
2021/08/13 04:47:01;;;;;;;1.45;0.52;;;;;;;12.24;100.00;99957.28;4963305;28;20127;-73
2021/08/13 04:50:05;;;;;;;3.30;0.68;;;;;;;12.23;100.00;99944.59;4968760;28;20823;-73
2021/08/13 04:53:08;;;;;;;1.35;0.90;;;;;;;12.21;100.00;99935.94;4966845;28;20108;-73
2021/08/13 04:56:11;;;;;;;1.17;0.70;;;;;;;12.15;100.00;99930.25;4969482;28;20060;-74
2021/08/13 04:59:15;;;;;;;3.70;0.73;;;;;;;12.11;100.00;99933.25;4969098;28;20085;-73
2021/08/13 05:02:22;;;;;;;0.38;0.38;;;;;;;12.12;100.00;99934.81;4965144;28;20060;-73
2021/08/13 05:05:25;;;;;;;0.60;0.55;;;;;;;12.11;100.00;99933.25;4969623;28;20056;-73
2021/08/13 05:08:28;;;;;;;0.50;0.50;;;;;;;12.05;100.00;99929.63;4971946;28;21064;-73
2021/08/13 05:11:31;;;;;;;5.38;1.40;;;;;;;12.00;100.00;99933.06;4971975;28;20064;-74
2021/08/13 05:14:35;;;;;;;3.60;0.30;;;;;;;11.95;100.00;99924.63;4972971;28;20103;-73
2021/08/13 05:17:38;;;;;;;3.15;1.05;;;;;;;11.92;100.00;99943.09;4973195;28;20828;-73
2021/08/13 05:20:41;;;;;;;9.48;0.85;;;;;;;11.88;100.00;99936.19;4972731;28;20160;-75
2021/08/13 05:23:45;;;;;;;7.68;1.00;;;;;;;11.83;100.00;99937.63;4964434;28;20893;-75
2021/08/13 05:26:48;;;;;;;2.03;0.95;;;;;;;11.82;100.00;99933.31;4971521;28;20089;-75
2021/08/13 05:29:51;;;;;;;2.75;0.43;;;;;;;11.87;100.00;99946.56;4965359;28;20157;-76
2021/08/13 05:32:55;;;;;;;1.48;0.75;;;;;;;11.89;100.00;99932.91;4971881;28;20057;-75
2021/08/13 05:35:58;;;;;;;3.60;0.52;;;;;;;11.90;100.00;99933.66;4970879;28;20080;-73
2021/08/13 05:39:02;;;;;;;4.72;0.60;;;;;;;11.87;100.00;99929.81;4970677;28;20139;-74
2021/08/13 05:42:05;;;;;;;4.90;0.70;;;;;;;11.89;100.00;99944.06;4966233;28;20714;-73
2021/08/13 05:45:08;;;;;;;0.95;0.52;;;;;;;11.91;100.00;99957.56;4972284;28;20611;-73
2021/08/13 05:48:12;;;;;;;2.45;0.85;;;;;;;11.94;100.00;99956.56;4967034;28;20150;-75
2021/08/13 05:51:15;;;;;;;1.17;0.90;;;;;;;11.95;100.00;99958.88;4970179;28;20049;-76
2021/08/13 05:54:18;;;;;;;3.60;0.50;;;;;;;11.97;100.00;99959.19;4971454;28;20053;-76
2021/08/13 05:57:21;;;;;;;1.77;0.80;;;;;;;11.94;100.00;99967.72;4971260;28;20061;-73
2021/08/13 06:00:24;;;;;;;4.18;0.80;;;;;;;11.90;100.00;99967.94;4963986;28;20057;-76
2021/08/13 06:03:28;;;;;;;2.75;0.93;;;;;;;11.86;100.00;99983.34;4962434;28;20049;-73
2021/08/13 06:06:31;;;;;;;0.57;0.40;;;;;;;11.82;100.00;99989.13;4967547;28;20052;-73
2021/08/13 06:09:34;;;;;;;0.73;0.57;;;;;;;11.82;100.00;100002.28;4962914;28;20799;-73
2021/08/13 06:12:37;;;;;;;0.45;0.45;;;;;;;11.89;100.00;99990.75;4966075;28;20294;-75
2021/08/13 06:15:40;;;;;;;0.43;0.43;;;;;;;11.98;100.00;100005.38;4966686;28;20062;-74
2021/08/13 06:18:44;;;;;;;6.07;1.20;;;;;;;12.15;100.00;100006.41;4967051;28;20060;-74
2021/08/13 06:21:47;;;;;;;2.67;0.45;;;;;;;12.30;100.00;100005.63;4965063;28;20057;-73
2021/08/13 06:24:50;;;;;;;3.13;1.08;;;;;;;12.44;100.00;100004.84;4965947;28;20062;-73
2021/08/13 06:27:53;;;;;;;1.13;0.60;;;;;;;12.56;100.00;100006.56;4970267;28;20056;-74
2021/08/13 06:30:56;;;;;;;2.92;0.45;;;;;;;12.64;100.00;100007.69;4966878;28;20209;-75
2021/08/13 06:34:00;;;;;;;8.77;0.73;;;;;;;12.71;100.00;100024.06;4963450;28;20056;-73
2021/08/13 06:37:03;;;;;;;3.92;1.38;;;;;;;12.75;100.00;100013.44;4955442;28;20061;-73
2021/08/13 06:40:06;;;;;;;1.63;0.65;;;;;;;12.84;100.00;100007.72;4964871;28;20646;-73
2021/08/13 06:43:10;;;;;;;6.18;0.30;;;;;;;12.96;100.00;100001.00;4965510;28;20607;-74
2021/08/13 06:46:13;;;;;;;3.03;0.17;;;;;;;13.22;100.00;100001.13;4968404;28;20048;-75
2021/08/13 06:49:16;;;;;;;2.83;0.57;;;;;;;13.29;100.00;99989.50;4968774;28;20131;-74
2021/08/13 06:52:19;;;;;;;4.60;1.08;;;;;;;13.30;100.00;99979.84;4966619;28;20104;-73
2021/08/13 06:55:23;;;;;;;0.38;0.20;;;;;;;13.31;100.00;99996.16;4967563;28;20431;-74
2021/08/13 06:58:25;;;;;;;5.07;0.93;;;;;;;13.40;100.00;99984.81;4966987;28;20061;-74
2021/08/13 07:01:29;;;;;;;0.75;0.60;;;;;;;13.48;100.00;99980.31;4969767;28;20141;-74
2021/08/13 07:04:32;;;;;;;1.10;0.45;;;;;;;13.61;100.00;99999.53;4970442;28;20810;-74
2021/08/13 07:07:35;;;;;;;1.65;0.60;;;;;;;13.60;100.00;100009.94;4969655;28;20156;-74
2021/08/13 07:10:39;;;;;;;3.65;0.45;;;;;;;13.69;100.00;100004.19;4969565;28;20064;-74
2021/08/13 07:13:42;;;;;;;4.05;0.95;;;;;;;13.67;100.00;100006.72;4968235;28;20057;-74
2021/08/13 07:16:45;;;;;;;0.50;0.45;;;;;;;13.74;100.00;100013.91;4961367;28;20176;-74
2021/08/13 07:19:48;;;;;;;2.47;0.65;;;;;;;13.86;100.00;100014.81;4961557;28;20215;-74
2021/08/13 07:22:52;;;;;;;16.77;1.40;;;;;;;13.93;100.00;100008.75;4961479;28;20112;-74
2021/08/13 07:25:55;;;;;;;2.42;0.38;;;;;;;14.03;100.00;100007.34;4961888;28;20891;-73
2021/08/13 07:28:59;;;;;;;2.75;0.80;;;;;;;14.10;100.00;100002.03;4962395;28;20157;-74
2021/08/13 07:32:02;;;;;;;3.15;0.30;;;;;;;14.12;100.00;100009.97;4961940;28;20807;-74
2021/08/13 07:35:06;;;;;;;1.95;0.63;;;;;;;14.19;100.00;100004.66;4967141;28;20060;-74
2021/08/13 07:38:09;;;;;;;4.40;0.65;;;;;;;14.27;100.00;99999.41;4964611;28;20120;-73
2021/08/13 07:41:12;;;;;;;0.68;0.40;;;;;;;14.34;100.00;100016.53;4969235;28;20061;-75
2021/08/13 07:44:15;;;;;;;2.67;0.45;;;;;;;14.34;100.00;100021.34;4968231;28;20052;-73
2021/08/13 07:47:19;;;;;;;4.68;0.50;;;;;;;14.41;100.00;100018.88;4969140;28;20129;-74
2021/08/13 07:50:22;;;;;;;9.77;0.73;;;;;;;14.43;100.00;100012.78;4970220;28;20088;-73
2021/08/13 07:53:25;;;;;;;5.20;0.70;;;;;;;14.54;100.00;100000.88;4968207;28;21039;-74
2021/08/13 07:56:28;;;;;;;4.80;0.20;;;;;;;14.66;100.00;100003.25;4968580;28;20060;-74
2021/08/13 07:59:35;;;;;;;4.22;0.40;;;;;;;14.73;100.00;100011.19;4966597;28;20057;-74
2021/08/13 08:02:40;;;;;;;3.20;0.70;;;;;;;14.81;100.00;100017.88;4968085;28;20108;-74
2021/08/13 08:05:43;;;;;;;3.40;0.13;;;;;;;14.86;100.00;100021.97;4959906;28;20056;-75
2021/08/13 08:08:47;;;;;;;6.43;0.30;;;;;;;14.96;100.00;100021.28;4960280;28;20049;-74
2021/08/13 08:11:51;;;;;;;8.13;0.90;;;;;;;15.07;100.00;100021.34;4961678;28;20133;-74
2021/08/13 08:14:54;;;;;;;1.77;0.60;;;;;;;15.11;100.00;100021.88;4961031;28;20127;-74
2021/08/13 08:17:58;;;;;;;0.20;0.10;;;;;;;15.07;100.00;100023.38;4966787;28;20786;-74
2021/08/13 08:21:01;;;;;;;0.40;0.13;;;;;;;15.06;100.00;100028.22;4960765;28;20873;-74
2021/08/13 08:24:04;;;;;;;2.85;0.22;;;;;;;15.24;100.00;100027.03;4960026;28;20057;-74
2021/08/13 08:27:07;;;;;;;4.47;0.50;;;;;;;15.33;100.00;100017.63;4965441;28;20654;-74
2021/08/13 08:30:13;;;;;;;6.43;0.60;;;;;;;15.38;100.00;100023.25;4965909;28;21028;-74
2021/08/13 08:33:15;;;;;;;10.48;1.20;;;;;;;15.50;100.00;100019.25;4965656;28;20202;-74
2021/08/13 08:36:19;;;;;;;1.75;0.17;;;;;;;15.66;100.00;100026.19;4964581;28;20745;-74
2021/08/13 08:39:23;;;;;;;0.55;0.20;;;;;;;16.21;100.00;100026.28;4966019;28;20121;-75
2021/08/13 08:42:26;;;;;;;3.88;0.60;;;;;;;16.29;100.00;100041.34;4966315;28;20057;-74
2021/08/13 08:45:31;;;;;;;1.00;0.30;;;;;;;16.36;100.00;100034.47;4965038;28;20064;-74
2021/08/13 08:48:39;;;;;;;1.75;0.20;;;;;;;16.40;100.00;100043.41;4966085;28;20084;-74
2021/08/13 08:51:42;;;;;;;4.57;0.30;;;;;;;16.51;100.00;100049.81;4965577;28;20076;-74
2021/08/13 08:54:46;;;;;;;0.80;0.38;;;;;;;16.68;100.00;100047.00;4957860;28;20084;-75
2021/08/13 08:58:01;;;;;;;2.20;0.10;;;;;;;16.57;100.00;100047.78;4959132;28;20068;-74
2021/08/13 09:01:04;;;;;;;3.70;0.32;;;;;;;16.78;100.00;100050.31;4965817;28;20080;-74
2021/08/13 09:04:09;;;;;;;15.48;0.98;;;;;;;16.82;100.00;100057.22;4965248;28;20080;-74
2021/08/13 09:07:12;;;;;;;2.88;0.73;;;;;;;17.09;100.00;100053.56;4965253;28;20141;-74
2021/08/13 09:10:15;;;;;;;8.75;1.38;;;;;;;17.27;100.00;100053.00;4960937;28;20088;-75
2021/08/13 09:13:23;;;;;;;0.38;0.10;;;;;;;17.36;100.00;100049.13;4964503;28;20053;-74
2021/08/13 09:16:26;;;;;;;0.93;0.32;;;;;;;17.58;100.00;100049.09;4965068;28;20053;-73
2021/08/13 09:19:43;;;;;;;3.45;0.32;;;;;;;17.68;100.00;100047.50;4965170;28;20057;-74
2021/08/13 09:22:46;;;;;;;1.08;0.20;;;;;;;17.61;100.00;100047.25;4956680;28;20131;-74
2021/08/13 09:25:57;;;;;;;5.32;0.32;;;;;;;17.67;100.00;100040.31;4957433;28;20260;-73
2021/08/13 09:29:02;;;;;;;9.85;0.20;;;;;;;17.84;100.00;100037.41;4958656;28;20085;-75
2021/08/13 09:32:05;;;;;;;4.13;0.80;;;;;;;18.06;100.00;100043.66;4966269;28;21203;-75
2021/08/13 09:35:12;;;;;;;0.98;0.20;;;;;;;18.26;100.00;100044.56;4966757;28;20053;-75
2021/08/13 09:38:15;;;;;;;6.38;0.50;;;;;;;18.35;100.00;100035.75;4965018;28;20123;-75
2021/08/13 09:41:19;;;;;;;2.05;0.30;;;;;;;18.58;100.00;100042.81;4964749;28;20288;-74
2021/08/13 09:44:24;;;;;;;2.65;0.30;;;;;;;18.88;100.00;100044.28;4963764;28;20199;-74
2021/08/13 09:47:40;;;;;;;2.65;0.20;;;;;;;18.84;100.00;100052.28;4963058;28;20124;-74
2021/08/13 09:50:43;;;;;;;2.20;0.32;;;;;;;18.56;100.00;100048.19;4959652;28;20056;-74
2021/08/13 09:53:58;;;;;;;2.40;0.90;;;;;;;18.41;100.00;100047.78;4962600;28;20368;-74
2021/08/13 09:57:15;;;;;;;0.50;0.43;;;;;;;18.26;100.00;100047.41;4969327;28;20061;-73
2021/08/13 10:00:19;;;;;;;7.32;0.50;;;;;;;18.31;100.00;100055.03;4965066;28;20136;-74
2021/08/13 10:03:22;;;;;;;4.65;0.20;;;;;;;18.65;100.00;100047.84;4969500;28;20208;-74
2021/08/13 10:06:30;;;;;;;6.43;0.68;;;;;;;18.92;100.00;100041.19;4969670;28;20112;-75
2021/08/13 10:09:34;;;;;;;2.03;0.10;;;;;;;18.83;100.00;100047.16;4969748;28;20057;-74
2021/08/13 10:12:46;;;;;;;3.03;0.22;;;;;;;18.75;100.00;100043.41;4968540;28;20069;-74
2021/08/13 10:15:54;;;;;;;1.02;0.20;;;;;;;18.94;100.00;100047.06;4962151;28;20112;-73
2021/08/13 10:18:58;;;;;;;1.08;0.10;;;;;;;19.18;100.00;100043.47;4967238;28;20156;-76
2021/08/13 10:22:02;;;;;;;1.10;0.20;;;;;;;19.51;100.00;100035.38;4965861;28;20155;-75
2021/08/13 10:25:06;;;;;;;2.03;0.20;;;;;;;19.56;100.00;100040.19;4968434;28;20116;-76
2021/08/13 10:28:09;;;;;;;4.55;0.45;;;;;;;19.12;100.00;100051.25;4969173;28;20191;-76
2021/08/13 10:31:16;;;;;;;6.63;0.20;;;;;;;19.03;100.00;100055.19;4968918;28;20108;-75
2021/08/13 10:34:19;;;;;;;2.63;0.10;;;;;;;18.70;100.00;100050.63;4967121;28;20398;-75
2021/08/13 10:37:26;;;;;;;0.93;0.20;;;;;;;18.62;100.00;100051.75;4967961;28;20193;-74
2021/08/13 10:40:31;;;;;;;5.22;0.45;;;;;;;18.71;100.00;100057.03;4969005;28;21181;-76
2021/08/13 10:43:38;;;;;;;3.08;0.40;;;;;;;18.99;100.00;100049.06;4998236;28;20112;-76
2021/08/13 10:46:43;;;;;;;2.08;0.05;;;;;;;19.55;100.00;100027.38;5012812;28;20112;-76
2021/08/13 10:49:49;;;;;;;0.57;0.22;;;;;;;20.06;100.00;100047.22;5005658;28;20538;-75
2021/08/13 10:52:53;;;;;;;2.45;0.73;;;;;;;20.17;100.00;100035.75;5006521;28;20068;-75
2021/08/13 10:55:57;;;;;;;0.73;0.10;;;;;;;20.26;100.00;100038.19;5007559;28;20124;-76
2021/08/13 10:59:00;;;;;;;0.63;0.10;;;;;;;20.40;100.00;100031.28;5007885;28;20103;-76
2021/08/13 11:02:19;;;;;;;1.55;0.25;;;;;;;20.81;100.00;100030.84;5013680;28;20467;-76
2021/08/13 11:05:58;;;;;;;1.08;0.10;;;;;;;20.92;100.00;100039.88;5009312;28;20060;-76
2021/08/13 11:09:02;;;;;;;0.45;0.10;;;;;;;21.13;100.00;100046.47;5007893;28;20128;-77
2021/08/13 11:12:13;;;;;;;4.38;0.17;;;;;;;20.86;100.00;100039.22;5013646;28;20061;-76
2021/08/13 11:15:34;;;;;;;4.00;0.40;;;;;;;20.60;100.00;100042.00;5013268;28;20085;-76
2021/08/13 11:18:38;;;;;;;4.35;0.32;;;;;;;20.41;100.00;100038.47;5012414;28;20483;-76
2021/08/13 11:21:51;;;;;;;1.15;0.10;;;;;;;20.41;100.00;100038.47;5013075;28;20120;-76
2021/08/13 11:24:55;;;;;;;0.82;0.35;;;;;;;20.42;100.00;100042.06;5006537;28;20069;-76
2021/08/13 11:28:19;;;;;;;3.17;0.60;;;;;;;20.38;100.00;100031.81;5007098;28;20053;-82
2021/08/13 11:31:48;;;;;;;1.13;0.10;;;;;;;20.29;100.00;100039.97;5012070;28;20061;-78
2021/08/13 11:34:55;;;;;;;6.70;0.63;;;;;;;20.38;100.00;100039.53;5005817;28;20455;-77
2021/08/13 11:37:58;;;;;;;1.35;0.10;;;;;;;20.47;100.00;100033.47;5006732;28;20570;-74
2021/08/13 11:41:21;;;;;;;7.28;1.27;;;;;;;20.77;100.00;100030.41;5012706;28;20131;-77
2021/08/13 11:44:25;;;;;;;1.65;0.70;;;;;;;21.01;100.00;100028.13;5012459;28;20108;-75
2021/08/13 11:47:28;;;;;;;0.20;0.10;;;;;;;21.05;100.00;100039.91;5011945;28;20128;-75
2021/08/13 11:50:31;;;;;;;0.68;0.17;;;;;;;20.95;100.00;100041.63;5011823;28;20057;-72
2021/08/13 11:53:36;;;;;;;3.35;0.20;;;;;;;21.09;100.00;100033.94;5012295;28;20508;-75
2021/08/13 11:56:40;;;;;;;1.85;0.08;;;;;;;21.47;100.00;100045.78;5011981;28;20080;-75
2021/08/13 11:59:44;;;;;;;2.55;0.40;;;;;;;21.53;100.00;100052.09;5012087;28;20571;-75
2021/08/13 12:02:47;;;;;;;3.03;0.20;;;;;;;21.41;100.00;100042.31;5004346;28;20056;-76
2021/08/13 12:05:50;;;;;;;8.48;0.13;;;;;;;21.33;100.00;100047.13;5004879;28;20065;-75
2021/08/13 12:08:53;;;;;;;15.35;1.98;;;;;;;21.43;100.00;100051.03;5005125;28;20069;-75
2021/08/13 12:11:57;;;;;;;5.88;0.35;;;;;;;21.29;100.00;100052.38;5020131;28;20060;-74
2021/08/13 12:15:00;;;;;;;0.20;0.00;;;;;;;20.97;100.00;100058.84;5025948;28;20079;-74
2021/08/13 12:18:04;;;;;;;1.83;0.10;;;;;;;20.79;100.00;100056.84;5011553;28;20146;-77
2021/08/13 12:21:08;;;;;;;3.38;0.25;;;;;;;20.76;100.00;100063.59;5026950;28;20427;-77
2021/08/13 12:24:12;;;;;;;1.27;0.20;;;;;;;20.86;100.00;100064.72;5031644;28;20112;-77
2021/08/13 12:27:15;;;;;;;0.82;0.25;;;;;;;21.14;100.00;100058.56;5030068;28;20469;-75
2021/08/13 12:30:23;;;;;;;0.35;0.10;;;;;;;21.45;100.00;100059.75;4995669;28;20126;-74
2021/08/13 12:33:26;;;;;;;2.00;0.10;;;;;;;21.92;100.00;100062.66;5011015;28;20153;-75
2021/08/13 12:36:28;;;;;;;0.40;0.00;;;;;;;22.19;100.00;100066.94;5011243;28;20072;-75
2021/08/13 12:39:35;;;;;;;0.65;0.00;;;;;;;21.67;100.00;100064.97;5011459;28;20064;-74
2021/08/13 12:42:40;;;;;;;9.25;0.22;;;;;;;21.77;100.00;100066.78;5008263;28;28143;-76
2021/08/13 12:45:44;;;;;;;0.68;0.20;;;;;;;21.60;100.00;100071.28;5004576;28;20064;-74
2021/08/13 12:48:48;;;;;;;3.85;0.15;;;;;;;21.60;100.00;100074.13;4994195;28;20645;-75
2021/08/13 12:52:14;;;;;;;4.90;0.10;;;;;;;21.66;100.00;100069.09;4999185;28;20053;-77
2021/08/13 12:55:17;;;;;;;1.85;0.20;;;;;;;21.68;100.00;100066.47;5001634;28;20179;-77
2021/08/13 12:58:32;;;;;;;0.93;0.10;;;;;;;21.66;100.00;100057.75;4997264;28;20088;-77
2021/08/13 13:01:34;;;;;;;1.83;0.20;;;;;;;21.68;100.00;100066.47;5004498;28;20201;-74
2021/08/13 13:04:40;;;;;;;1.17;0.28;;;;;;;21.67;100.00;100076.31;5008093;28;20783;-77
2021/08/13 13:07:43;;;;;;;3.13;0.10;;;;;;;21.68;100.00;100077.81;5008755;28;20131;-77
2021/08/13 13:10:46;;;;;;;1.23;0.10;;;;;;;21.69;100.00;100082.97;5003772;28;20065;-75
2021/08/13 13:13:50;;;;;;;0.60;0.00;;;;;;;21.65;100.00;100090.25;5003419;28;20531;-80
2021/08/13 13:17:09;;;;;;;2.47;0.00;;;;;;;21.65;100.00;100084.59;4991800;28;20061;-74
2021/08/13 13:20:17;;;;;;;0.17;0.10;;;;;;;21.69;100.00;100085.03;5009033;28;20056;-76
2021/08/13 13:23:20;;;;;;;1.67;0.10;;;;;;;21.67;100.00;100093.31;4999903;28;20058;-76
2021/08/13 13:26:24;;;;;;;0.20;0.20;;;;;;;21.73;100.00;100097.56;4998616;28;20054;-76
2021/08/13 13:29:39;;;;;;;0.30;0.00;;;;;;;21.41;100.00;100073.50;4992265;28;20062;-75
2021/08/13 13:32:58;;;;;;;1.17;0.10;;;;;;;21.44;100.00;100087.31;4993791;28;20105;-75
2021/08/13 13:36:08;;;;;;;2.95;0.20;;;;;;;21.61;100.00;100079.25;5000772;28;20060;-80
2021/08/13 13:39:11;;;;;;;1.60;0.25;;;;;;;21.67;100.00;100077.06;5003623;28;20105;-73
2021/08/13 13:42:14;;;;;;;4.13;0.38;;;;;;;21.65;100.00;100061.91;5014964;28;20076;-74
2021/08/13 13:45:18;;;;;;;5.13;0.10;;;;;;;21.70;100.00;100061.03;5014683;28;20065;-75
2021/08/13 13:48:22;;;;;;;0.63;0.28;;;;;;;21.76;100.00;100051.13;5014096;28;20196;-78
2021/08/13 13:51:25;;;;;;;2.58;0.10;;;;;;;21.87;100.00;100061.47;5013155;28;20076;-74
2021/08/13 13:54:28;;;;;;;1.05;0.22;;;;;;;21.80;100.00;100062.88;5013758;28;20407;-75
2021/08/13 13:57:36;;;;;;;0.17;0.10;;;;;;;21.75;100.00;100066.59;5014241;28;20064;-75
2021/08/13 14:00:39;;;;;;;0.35;0.10;;;;;;;21.71;100.00;100066.16;5013981;28;20565;-75
2021/08/13 14:03:42;;;;;;;0.63;0.05;;;;;;;21.65;100.00;100076.09;5014423;28;20584;-75
2021/08/13 14:06:45;;;;;;;2.63;0.10;;;;;;;21.62;100.00;100071.50;5006344;28;20503;-75
2021/08/13 14:09:48;;;;;;;0.85;0.55;;;;;;;21.82;100.00;100076.50;5007109;28;20139;-75
2021/08/13 14:12:54;;;;;;;0.45;0.00;;;;;;;21.89;100.00;100065.25;5007112;28;20415;-77
2021/08/13 14:15:57;;;;;;;0.28;0.00;;;;;;;21.76;100.00;100078.69;5007679;28;20049;-77